createdAt,value
2018-09-27T00:01:33.013Z,95338.26
2018-09-27T00:04:00.606Z,95334.30
2018-09-27T00:06:28.210Z,95343.42
2018-09-27T00:08:55.790Z,95331.88
2018-09-27T00:11:23.382Z,95338.08
2018-09-27T00:13:51.250Z,95332.71
2018-09-27T00:16:18.834Z,95334.70
2018-09-27T00:18:46.506Z,95333.11
2018-09-27T00:21:14.122Z,95340.41
2018-09-27T00:23:41.724Z,95332.22
2018-09-27T00:26:09.562Z,95340.06
2018-09-27T00:28:37.165Z,95338.94
2018-09-27T00:31:04.786Z,95335.52
2018-09-27T00:33:32.409Z,95330.90
2018-09-27T00:35:59.984Z,95334.20
2018-09-27T00:38:27.754Z,95329.05
2018-09-27T00:40:55.346Z,95327.17
2018-09-27T00:43:22.917Z,95329.97
2018-09-27T00:45:51.240Z,95331.23
2018-09-27T00:48:18.870Z,95327.03
2018-09-27T00:50:46.970Z,95325.08
2018-09-27T00:53:14.542Z,95323.43
2018-09-27T00:55:42.167Z,95318.84
2018-09-27T00:58:10.259Z,95317.72
2018-09-27T01:00:38.222Z,95315.88
2018-09-27T01:03:05.809Z,95312.31
2018-09-27T01:05:33.426Z,95308.61
2018-09-27T01:08:00.995Z,95307.11
2018-09-27T01:10:28.530Z,95306.34
2018-09-27T01:12:56.040Z,95300.23
2018-09-27T01:15:23.602Z,95309.59
2018-09-27T01:17:51.365Z,95308.38
2018-09-27T01:20:18.888Z,95301.31
2018-09-27T01:22:46.438Z,95302.27
2018-09-27T01:25:14.002Z,95299.48
2018-09-27T01:27:41.489Z,95302.62
2018-09-27T01:30:09.039Z,95294.95
2018-09-27T01:32:37.030Z,95294.34
2018-09-27T01:35:04.515Z,95287.06
2018-09-27T01:37:32.093Z,95286.07
2018-09-27T01:40:00.199Z,95288.11
2018-09-27T01:42:27.712Z,95284.77
2018-09-27T01:44:55.213Z,95287.67
2018-09-27T01:47:22.716Z,95286.23
2018-09-27T01:49:50.228Z,95282.61
2018-09-27T01:52:17.727Z,95280.35
2018-09-27T01:54:45.243Z,95284.93
2018-09-27T01:57:12.741Z,95273.13
2018-09-27T01:59:41.003Z,95274.64
2018-09-27T02:02:09.238Z,95276.03
2018-09-27T02:04:36.746Z,95274.78
2018-09-27T02:07:04.293Z,95273.02
2018-09-27T02:09:31.855Z,95264.75
2018-09-27T02:11:59.370Z,95263.13
2018-09-27T02:14:26.881Z,95265.74
2018-09-27T02:16:54.389Z,95260.09
2018-09-27T02:19:21.907Z,95256.17
2018-09-27T02:21:49.391Z,95259.42
2018-09-27T02:24:16.910Z,95256.12
2018-09-27T02:26:44.455Z,95252.95
2018-09-27T02:29:11.940Z,95253.51
2018-09-27T02:31:39.451Z,95256.12
2018-09-27T02:34:07.022Z,95255.30
2018-09-27T02:36:34.578Z,95256.41
2018-09-27T02:39:02.317Z,95255.45
2018-09-27T02:41:29.838Z,95258.63
2018-09-27T02:43:57.331Z,95259.42
2018-09-27T02:46:24.867Z,95253.40
2018-09-27T02:48:52.391Z,95256.80
2018-09-27T02:51:19.898Z,95250.50
2018-09-27T02:53:47.418Z,95255.02
2018-09-27T02:56:14.983Z,95254.78
2018-09-27T02:58:42.499Z,95250.09
2018-09-27T03:01:10.249Z,95249.14
2018-09-27T03:03:37.796Z,95244.17
2018-09-27T03:06:05.408Z,95244.89
2018-09-27T03:08:33.511Z,95243.38
2018-09-27T03:11:01.023Z,95239.75
2018-09-27T03:13:28.530Z,95241.31
2018-09-27T03:15:56.054Z,95239.20
2018-09-27T03:18:23.655Z,95240.97
2018-09-27T03:20:51.200Z,95235.14
2018-09-27T03:23:18.695Z,95238.80
2018-09-27T03:25:46.495Z,95243.86
2018-09-27T03:28:13.998Z,95235.92
2018-09-27T03:30:41.494Z,95224.25
2018-09-27T03:33:09.009Z,95222.51
2018-09-27T03:35:36.535Z,95227.73
2018-09-27T03:38:04.404Z,95225.93
2018-09-27T03:40:31.969Z,95225.66
2018-09-27T03:42:59.445Z,95224.58
2018-09-27T03:45:27.028Z,95216.26
2018-09-27T03:47:54.663Z,95219.27
2018-09-27T03:50:22.138Z,95214.26
2018-09-27T03:52:49.809Z,95215.50
2018-09-27T03:55:17.306Z,95212.75
2018-09-27T03:57:44.827Z,95215.77
2018-09-27T04:00:12.362Z,95218.66
2018-09-27T04:02:39.886Z,95213.45
2018-09-27T04:05:07.398Z,95210.28
2018-09-27T04:07:34.890Z,95206.72
2018-09-27T04:10:02.407Z,95208.63
2018-09-27T04:12:29.950Z,95198.89
2018-09-27T04:14:57.441Z,95201.65
2018-09-27T04:17:24.947Z,95203.02
2018-09-27T04:19:52.451Z,95202.86
2018-09-27T04:22:20.681Z,95201.09
2018-09-27T04:24:48.530Z,95194.77
2018-09-27T04:27:16.030Z,95193.03
2018-09-27T04:29:43.530Z,95190.38
2018-09-27T04:32:11.367Z,95185.70
2018-09-27T04:34:38.877Z,95191.21
2018-09-27T04:37:06.473Z,95185.23
2018-09-27T04:39:34.022Z,95183.09
2018-09-27T04:42:01.580Z,95180.48
2018-09-27T04:44:29.078Z,95180.48
2018-09-27T04:46:56.980Z,95182.84
2018-09-27T04:49:24.501Z,95182.43
2018-09-27T04:51:52.021Z,95179.06
2018-09-27T04:54:20.629Z,95183.77
2018-09-27T04:56:48.094Z,95185.23
2018-09-27T04:59:15.645Z,95186.67
2018-09-27T05:01:43.151Z,95184.48
2018-09-27T05:04:10.814Z,95184.13
2018-09-27T05:06:38.339Z,95181.88
2018-09-27T05:09:06.331Z,95181.53
2018-09-27T05:11:33.854Z,95179.14
2018-09-27T05:14:01.432Z,95179.93
2018-09-27T05:16:28.984Z,95177.32
2018-09-27T05:18:56.586Z,95185.66
2018-09-27T05:21:24.162Z,95184.89
2018-09-27T05:23:51.679Z,95185.84
2018-09-27T05:26:19.169Z,95183.78
2018-09-27T05:28:46.671Z,95177.05
2018-09-27T05:31:14.182Z,95176.92
2018-09-27T05:33:41.787Z,95172.88
2018-09-27T05:36:09.271Z,95170.41
2018-09-27T05:38:36.817Z,95173.64
2018-09-27T05:41:04.320Z,95170.89
2018-09-27T05:43:31.838Z,95175.00
2018-09-27T05:45:59.418Z,95167.18
2018-09-27T05:48:26.911Z,95162.92
2018-09-27T05:50:54.425Z,95160.42
2018-09-27T05:53:22.069Z,95152.57
2018-09-27T05:55:49.609Z,95144.09
2018-09-27T05:58:17.499Z,95153.16
2018-09-27T06:00:45.066Z,95150.28
2018-09-27T06:03:12.594Z,95151.53
2018-09-27T06:05:40.119Z,95150.69
2018-09-27T06:08:07.634Z,95151.28
2018-09-27T06:10:35.211Z,95156.77
2018-09-27T06:13:02.752Z,95149.18
2018-09-27T06:15:30.265Z,95141.34
2018-09-27T06:17:58.078Z,95143.39
2018-09-27T06:20:25.564Z,95144.03
2018-09-27T06:22:53.072Z,95136.77
2018-09-27T06:25:20.601Z,95139.91
2018-09-27T06:27:48.091Z,95130.22
2018-09-27T06:30:15.612Z,95130.45
2018-09-27T06:32:43.126Z,95130.25
2018-09-27T06:35:11.013Z,95137.78
2018-09-27T06:37:38.442Z,95147.91
2018-09-27T06:40:06.188Z,95140.09
2018-09-27T06:42:33.715Z,95146.43
2018-09-27T06:45:01.214Z,95138.66
2018-09-27T06:47:28.722Z,95141.33
2018-09-27T06:49:56.247Z,95141.89
2018-09-27T06:52:23.775Z,95142.38
2018-09-27T06:54:51.399Z,95145.09
2018-09-27T06:57:18.843Z,95145.83
2018-09-27T06:59:46.362Z,95143.05
2018-09-27T07:02:13.878Z,95139.24
2018-09-27T07:04:41.454Z,95139.77
2018-09-27T07:07:09.004Z,95134.34
2018-09-27T07:09:36.503Z,95134.09
2018-09-27T07:12:04.098Z,95136.13
2018-09-27T07:14:31.593Z,95137.11
2018-09-27T07:16:59.127Z,95135.96
2018-09-27T07:19:26.590Z,95140.31
2018-09-27T07:21:54.081Z,95137.97
2018-09-27T07:24:21.903Z,95130.34
2018-09-27T07:26:49.950Z,95128.64
2018-09-27T07:29:17.278Z,95128.56
2018-09-27T07:31:44.828Z,95130.37
2018-09-27T07:34:12.326Z,95128.91
2018-09-27T07:36:39.883Z,95136.34
2018-09-27T07:39:08.414Z,95132.08
2018-09-27T07:41:35.898Z,95128.34
2018-09-27T07:44:03.418Z,95121.14
2018-09-27T07:46:30.934Z,95120.62
2018-09-27T07:48:58.435Z,95119.48
2018-09-27T07:51:25.929Z,95115.96
2018-09-27T07:53:53.704Z,95117.66
2018-09-27T07:56:21.205Z,95111.64
2018-09-27T07:58:48.696Z,95112.27
2018-09-27T08:01:16.231Z,95121.64
2018-09-27T08:03:43.790Z,95116.44
2018-09-27T08:06:11.353Z,95115.41
2018-09-27T08:08:38.893Z,95106.53
2018-09-27T08:11:06.517Z,95105.71
2018-09-27T08:13:34.028Z,95114.25
2018-09-27T08:16:02.155Z,95116.45
2018-09-27T08:18:29.670Z,95110.38
2018-09-27T08:20:57.440Z,95115.36
2018-09-27T08:23:24.894Z,95119.44
2018-09-27T08:25:52.413Z,95114.96
2018-09-27T08:28:19.991Z,95117.00
2018-09-27T08:30:47.574Z,95117.11
2018-09-27T08:33:15.063Z,95117.77
2018-09-27T08:35:42.590Z,95114.73
2018-09-27T08:38:10.149Z,95113.12
2018-09-27T08:40:37.662Z,95117.72
2018-09-27T08:43:05.178Z,95110.21
2018-09-27T08:45:32.870Z,95105.36
2018-09-27T08:48:00.281Z,95107.66
2018-09-27T08:50:27.944Z,95105.62
2018-09-27T08:52:55.518Z,95099.10
2018-09-27T08:55:23.166Z,95097.27
2018-09-27T08:57:50.694Z,95097.41
2018-09-27T09:00:18.279Z,95110.87
2018-09-27T09:02:45.854Z,95107.34
2018-09-27T09:05:13.419Z,95101.00
2018-09-27T09:07:41.033Z,95099.53
2018-09-27T09:10:08.574Z,95093.11
2018-09-27T09:12:36.276Z,95088.03
2018-09-27T09:15:03.891Z,95091.90
2018-09-27T09:17:31.431Z,95088.42
2018-09-27T09:19:58.998Z,95087.45
2018-09-27T09:22:26.566Z,95087.01
2018-09-27T09:24:54.091Z,95082.45
2018-09-27T09:27:21.643Z,95081.45
2018-09-27T09:29:49.344Z,95078.66
2018-09-27T09:32:16.816Z,95072.85
2018-09-27T09:34:44.349Z,95072.13
2018-09-27T09:37:11.889Z,95070.23
2018-09-27T09:39:39.454Z,95061.81
2018-09-27T09:42:07.323Z,95064.29
2018-09-27T09:44:34.864Z,95066.34
2018-09-27T09:47:02.469Z,95060.72
2018-09-27T09:49:30.068Z,95057.87
2018-09-27T09:51:57.990Z,95055.70
2018-09-27T09:54:25.678Z,95052.86
2018-09-27T09:56:53.226Z,95056.22
2018-09-27T09:59:20.900Z,95051.98
2018-09-27T10:01:48.413Z,95051.38
2018-09-27T10:04:15.999Z,95045.14
2018-09-27T10:06:43.735Z,95043.02
2018-09-27T10:09:11.699Z,95042.34
2018-09-27T10:11:39.279Z,95038.84
2018-09-27T10:14:07.350Z,95032.97
2018-09-27T10:16:35.286Z,95028.17
2018-09-27T10:19:02.814Z,95028.61
2018-09-27T10:21:30.440Z,95021.08
2018-09-27T10:23:57.959Z,95017.11
2018-09-27T10:26:25.520Z,95015.91
2018-09-27T10:28:53.106Z,95009.59
2018-09-27T10:31:20.745Z,95005.38
2018-09-27T10:33:48.286Z,95007.59
2018-09-27T10:36:15.826Z,95001.31
2018-09-27T10:38:43.430Z,94996.76
2018-09-27T10:41:11.214Z,94995.79
2018-09-27T10:43:39.038Z,94993.28
2018-09-27T10:46:06.626Z,94991.28
2018-09-27T10:48:34.490Z,94996.09
2018-09-27T10:51:02.141Z,94989.62
2018-09-27T10:53:29.706Z,94992.00
2018-09-27T10:55:57.354Z,94984.63
2018-09-27T10:58:24.929Z,94984.45
2018-09-27T11:00:52.538Z,94981.31
2018-09-27T11:03:20.127Z,94983.42
2018-09-27T11:05:47.693Z,94980.65
2018-09-27T11:08:15.249Z,94973.98
2018-09-27T11:10:42.869Z,94969.06
2018-09-27T11:13:10.432Z,94975.37
2018-09-27T11:15:37.974Z,94971.00
2018-09-27T11:18:05.607Z,94964.55
2018-09-27T11:20:33.149Z,94960.03
2018-09-27T11:23:00.918Z,94956.69
2018-09-27T11:25:28.502Z,94955.22
2018-09-27T11:27:56.041Z,94951.75
2018-09-27T11:30:29.362Z,94950.22
2018-09-27T11:32:56.911Z,94939.37
2018-09-27T11:35:24.593Z,94940.48
2018-09-27T11:37:52.131Z,94937.30
2018-09-27T11:40:19.683Z,94931.91
2018-09-27T11:42:47.362Z,94931.19
2018-09-27T11:45:14.901Z,94920.20
2018-09-27T11:47:42.474Z,94923.12
2018-09-27T11:50:10.159Z,94916.96
2018-09-27T11:52:38.173Z,94909.42
2018-09-27T11:55:05.862Z,94909.16
2018-09-27T11:57:33.429Z,94902.97
2018-09-27T12:00:01.000Z,94899.45
2018-09-27T12:02:28.536Z,94899.18
2018-09-27T12:04:56.126Z,94896.49
2018-09-27T12:07:23.736Z,94890.55
2018-09-27T12:09:51.262Z,94881.30
2018-09-27T12:12:21.258Z,94885.83
2018-09-27T12:14:48.835Z,94879.16
2018-09-27T12:17:16.410Z,94882.84
2018-09-27T12:19:44.015Z,94882.84
2018-09-27T12:22:11.571Z,94869.09
2018-09-27T12:24:39.157Z,94872.08
2018-09-27T12:27:06.727Z,94867.53
2018-09-27T12:29:34.390Z,94864.24
2018-09-27T12:32:02.552Z,94862.85
2018-09-27T12:34:30.115Z,94851.30
2018-09-27T12:36:57.757Z,94850.47
2018-09-27T12:39:25.300Z,94843.44
2018-09-27T12:41:52.866Z,94840.16
2018-09-27T12:44:20.742Z,94835.22
2018-09-27T12:46:48.324Z,94837.33
2018-09-27T12:49:15.817Z,94832.47
2018-09-27T12:51:43.480Z,94834.26
2018-09-27T12:54:10.965Z,94824.43
2018-09-27T12:56:39.055Z,94818.78
2018-09-27T12:59:06.850Z,94822.73
2018-09-27T13:01:34.502Z,94812.52
2018-09-27T13:04:02.018Z,94807.17
2018-09-27T13:06:29.549Z,94802.26
2018-09-27T13:08:57.135Z,94800.91
2018-09-27T13:11:24.626Z,94796.91
2018-09-27T13:13:52.192Z,94792.78
2018-09-27T13:16:19.746Z,94791.71
2018-09-27T13:18:47.294Z,94789.19
2018-09-27T13:21:14.886Z,94786.56
2018-09-27T13:23:42.435Z,94786.72
2018-09-27T13:26:09.979Z,94782.39
2018-09-27T13:28:37.573Z,94778.89
2018-09-27T13:31:05.377Z,94784.57
2018-09-27T13:33:32.955Z,94777.05
2018-09-27T13:36:00.552Z,94774.62
2018-09-27T13:38:28.092Z,94761.76
2018-09-27T13:40:55.793Z,94760.35
2018-09-27T13:43:23.338Z,94758.60
2018-09-27T13:45:50.925Z,94752.52
2018-09-27T13:48:18.539Z,94754.58
2018-09-27T13:50:46.140Z,94749.98
2018-09-27T13:53:13.706Z,94749.28
2018-09-27T13:55:41.254Z,94742.00
2018-09-27T13:58:08.804Z,94732.12
2018-09-27T14:00:36.384Z,94737.95
2018-09-27T14:03:04.332Z,94741.20
2018-09-27T14:05:31.976Z,94739.02
2018-09-27T14:07:59.505Z,94733.30
2018-09-27T14:10:27.047Z,94736.40
2018-09-27T14:12:54.613Z,94728.53
2018-09-27T14:15:22.303Z,94723.58
2018-09-27T14:17:49.860Z,94724.75
2018-09-27T14:20:17.466Z,94715.54
2018-09-27T14:22:45.010Z,94722.84
2018-09-27T14:25:12.578Z,94710.70
2018-09-27T14:27:40.134Z,94713.38
2018-09-27T14:30:08.651Z,94717.60
2018-09-27T14:32:36.391Z,94709.56
2018-09-27T14:35:03.931Z,94710.09
2018-09-27T14:37:31.466Z,94707.41
2018-09-27T14:39:59.034Z,94705.66
2018-09-27T14:42:26.589Z,94692.63
2018-09-27T14:44:54.157Z,94694.02
2018-09-27T14:47:21.731Z,94694.70
2018-09-27T14:49:49.344Z,94694.24
2018-09-27T14:52:16.908Z,94689.94
2018-09-27T14:54:44.536Z,94695.91
2018-09-27T14:57:12.083Z,94693.32
2018-09-27T14:59:39.742Z,94688.28
2018-09-27T15:02:07.264Z,94691.94
2018-09-27T15:04:34.879Z,94687.62
2018-09-27T15:07:02.400Z,94685.46
2018-09-27T15:09:30.038Z,94681.67
2018-09-27T15:11:57.531Z,94689.52
2018-09-27T15:14:25.168Z,94688.91
2018-09-27T15:16:52.711Z,94683.06
2018-09-27T15:19:20.337Z,94684.94
2018-09-27T15:21:47.922Z,94683.30
2018-09-27T15:24:15.498Z,94677.61
2018-09-27T15:26:43.063Z,94673.58
2018-09-27T15:29:10.614Z,94669.05
2018-09-27T15:31:38.151Z,94672.53
2018-09-27T15:34:05.755Z,94666.09
2018-09-27T15:36:33.377Z,94664.03
2018-09-27T15:39:00.955Z,94665.32
2018-09-27T15:41:28.864Z,94661.84
2018-09-27T15:43:56.465Z,94663.89
2018-09-27T15:46:24.063Z,94655.16
2018-09-27T15:48:51.610Z,94653.59
2018-09-27T15:51:19.248Z,94653.82
2018-09-27T15:53:46.828Z,94652.02
2018-09-27T15:56:14.411Z,94650.97
2018-09-27T15:58:42.295Z,94650.40
2018-09-27T16:01:09.781Z,94649.25
2018-09-27T16:03:37.349Z,94644.83
2018-09-27T16:06:05.283Z,94647.05
2018-09-27T16:08:32.840Z,94642.70
2018-09-27T16:11:00.419Z,94633.63
2018-09-27T16:13:28.026Z,94637.70
2018-09-27T16:15:55.750Z,94636.98
2018-09-27T16:18:23.348Z,94640.00
2018-09-27T16:20:50.915Z,94639.06
2018-09-27T16:23:18.520Z,94638.98
2018-09-27T16:25:46.090Z,94635.52
2018-09-27T16:28:13.714Z,94630.48
2018-09-27T16:30:41.723Z,94625.65
2018-09-27T16:33:09.262Z,94625.95
2018-09-27T16:35:37.694Z,94622.23
2018-09-27T16:38:05.336Z,94626.36
2018-09-27T16:40:33.686Z,94626.17
2018-09-27T16:43:01.232Z,94622.38
2018-09-27T16:45:28.777Z,94620.11
2018-09-27T16:47:56.548Z,94620.11
2018-09-27T16:50:24.122Z,94616.08
2018-09-27T16:52:51.714Z,94610.73
2018-09-27T16:55:19.305Z,94610.02
2018-09-27T16:57:47.004Z,94608.27
2018-09-27T17:00:14.949Z,94612.75
2018-09-27T17:02:42.524Z,94610.00
2018-09-27T17:05:10.138Z,94609.73
2018-09-27T17:07:37.760Z,94603.05
2018-09-27T17:10:05.593Z,94606.79
2018-09-27T17:12:33.179Z,94603.33
2018-09-27T17:15:00.722Z,94605.80
2018-09-27T17:17:28.514Z,94610.70
2018-09-27T17:19:56.151Z,94606.26
2018-09-27T17:22:23.763Z,94607.25
2018-09-27T17:24:51.336Z,94607.48
2018-09-27T17:27:18.892Z,94611.31
2018-09-27T17:29:46.488Z,94606.91
2018-09-27T17:32:14.061Z,94607.39
2018-09-27T17:34:41.654Z,94602.98
2018-09-27T17:37:09.506Z,94603.14
2018-09-27T17:39:37.078Z,94609.79
2018-09-27T17:42:04.634Z,94606.06
2018-09-27T17:44:32.211Z,94614.06
2018-09-27T17:46:59.795Z,94615.85
2018-09-27T17:49:27.432Z,94615.42
2018-09-27T17:51:54.973Z,94618.33
2018-09-27T17:54:22.558Z,94615.01
2018-09-27T17:56:50.131Z,94616.25
2018-09-27T17:59:17.743Z,94623.04
2018-09-27T18:01:45.405Z,94619.80
2018-09-27T18:04:12.956Z,94625.70
2018-09-27T18:06:40.546Z,94633.63
2018-09-27T18:09:08.633Z,94635.08
2018-09-27T18:11:36.360Z,94629.61
2018-09-27T18:14:03.957Z,94631.50
2018-09-27T18:16:31.570Z,94626.69
2018-09-27T18:18:59.109Z,94630.41
2018-09-27T18:21:26.727Z,94631.70
2018-09-27T18:23:54.327Z,94634.16
2018-09-27T18:26:22.101Z,94636.14
2018-09-27T18:28:49.723Z,94635.25
2018-09-27T18:31:17.317Z,94635.90
2018-09-27T18:33:44.882Z,94638.17
2018-09-27T18:36:12.488Z,94634.25
2018-09-27T18:38:40.278Z,94636.19
2018-09-27T18:41:07.867Z,94639.20
2018-09-27T18:43:35.446Z,94636.11
2018-09-27T18:46:03.099Z,94642.06
2018-09-27T18:48:30.689Z,94631.52
2018-09-27T18:50:58.293Z,94633.83
2018-09-27T18:53:25.899Z,94633.87
2018-09-27T18:55:53.472Z,94632.33
2018-09-27T18:58:21.035Z,94629.52
2018-09-27T19:00:48.687Z,94627.69
2018-09-27T19:03:16.304Z,94636.05
2018-09-27T19:05:43.883Z,94628.13
2018-09-27T19:08:11.463Z,94627.19
2018-09-27T19:10:39.066Z,94626.49
2018-09-27T19:13:06.646Z,94621.91
2018-09-27T19:15:34.226Z,94618.36
2018-09-27T19:18:01.823Z,94618.98
2018-09-27T19:20:29.415Z,94617.42
2018-09-27T19:22:57.226Z,94620.19
2018-09-27T19:25:24.798Z,94614.66
2018-09-27T19:27:52.346Z,94612.83
2018-09-27T19:30:19.958Z,94619.55
2018-09-27T19:32:47.524Z,94613.86
2018-09-27T19:35:15.270Z,94609.09
2018-09-27T19:37:42.827Z,94611.63
2018-09-27T19:40:10.439Z,94613.84
2018-09-27T19:42:38.684Z,94617.66
2018-09-27T19:45:06.230Z,94619.51
2018-09-27T19:47:33.784Z,94614.60
2018-09-27T19:50:01.431Z,94608.92
2018-09-27T19:52:28.995Z,94613.88
2018-09-27T19:54:56.595Z,94607.69
2018-09-27T19:57:24.166Z,94608.17
2018-09-27T19:59:51.763Z,94604.56
2018-09-27T20:02:19.389Z,94601.98
2018-09-27T20:04:46.961Z,94612.11
2018-09-27T20:07:14.489Z,94607.09
2018-09-27T20:09:42.080Z,94605.14
2018-09-27T20:12:09.623Z,94601.19
2018-09-27T20:14:37.454Z,94605.83
2018-09-27T20:17:05.139Z,94603.59
2018-09-27T20:19:32.692Z,94602.38
2018-09-27T20:22:00.302Z,94607.39
2018-09-27T20:24:28.083Z,94602.66
2018-09-27T20:26:55.631Z,94601.83
2018-09-27T20:29:23.186Z,94601.20
2018-09-27T20:31:50.779Z,94603.03
2018-09-27T20:34:18.422Z,94603.38
2018-09-27T20:36:46.189Z,94603.70
2018-09-27T20:39:13.747Z,94599.20
2018-09-27T20:41:41.345Z,94602.22
2018-09-27T20:44:08.934Z,94598.13
2018-09-27T20:46:36.621Z,94608.27
2018-09-27T20:49:04.266Z,94604.08
2018-09-27T20:51:31.930Z,94605.91
2018-09-27T20:53:59.518Z,94600.21
2018-09-27T20:56:27.237Z,94600.81
2018-09-27T20:58:54.843Z,94597.47
2018-09-27T21:01:22.422Z,94590.18
2018-09-27T21:03:50.015Z,94594.38
2018-09-27T21:06:17.603Z,94593.62
2018-09-27T21:08:45.420Z,94588.72
2018-09-27T21:11:12.989Z,94590.20
2018-09-27T21:13:40.487Z,94590.52
2018-09-27T21:16:08.051Z,94587.47
2018-09-27T21:18:35.599Z,94587.97
2018-09-27T21:21:03.218Z,94588.16
2018-09-27T21:23:30.791Z,94584.52
2018-09-27T21:25:58.333Z,94586.78
2018-09-27T21:28:25.873Z,94586.78
2018-09-27T21:30:53.462Z,94579.78
2018-09-27T21:33:21.234Z,94574.84
2018-09-27T21:35:48.810Z,94578.42
2018-09-27T21:38:16.792Z,94576.45
2018-09-27T21:40:44.344Z,94574.37
2018-09-27T21:43:11.926Z,94577.80
2018-09-27T21:45:39.436Z,94576.72
2018-09-27T21:48:06.989Z,94574.41
2018-09-27T21:50:34.514Z,94578.44
2018-09-27T21:53:02.047Z,94575.36
2018-09-27T21:55:29.573Z,94573.41
2018-09-27T21:57:57.141Z,94575.04
2018-09-27T22:00:24.966Z,94578.62
2018-09-27T22:02:52.483Z,94574.68
2018-09-27T22:05:20.081Z,94572.59
2018-09-27T22:07:47.659Z,94573.97
2018-09-27T22:10:15.210Z,94571.34
2018-09-27T22:12:42.731Z,94573.16
2018-09-27T22:15:10.270Z,94568.14
2018-09-27T22:17:37.810Z,94572.48
2018-09-27T22:20:05.730Z,94578.23
2018-09-27T22:22:33.263Z,94571.97
2018-09-27T22:25:00.794Z,94577.27
2018-09-27T22:27:28.350Z,94576.45
2018-09-27T22:29:55.885Z,94580.39
2018-09-27T22:32:23.422Z,94573.23
2018-09-27T22:34:51.009Z,94576.77
2018-09-27T22:37:18.621Z,94580.07
2018-09-27T22:39:46.175Z,94579.30
2018-09-27T22:42:13.778Z,94575.35
2018-09-27T22:44:41.430Z,94566.24
2018-09-27T22:47:08.938Z,94569.26
2018-09-27T22:49:36.699Z,94567.78
2018-09-27T22:52:04.254Z,94567.84
2018-09-27T22:54:31.786Z,94571.47
2018-09-27T22:56:59.330Z,94567.50
2018-09-27T22:59:26.845Z,94567.67
2018-09-27T23:01:54.419Z,94566.72
2018-09-27T23:04:22.008Z,94563.23
2018-09-27T23:06:49.688Z,94557.80
2018-09-27T23:09:17.203Z,94557.37
2018-09-27T23:11:44.855Z,94553.28
2018-09-27T23:14:12.387Z,94557.80
2018-09-27T23:16:39.904Z,94557.50
2018-09-27T23:19:07.454Z,94558.87
2018-09-27T23:21:34.969Z,94559.20
2018-09-27T23:24:02.494Z,94556.88
2018-09-27T23:26:30.053Z,94559.30
2018-09-27T23:28:57.860Z,94557.98
2018-09-27T23:31:25.807Z,94557.42
2018-09-27T23:33:53.366Z,94551.52
2018-09-27T23:36:20.971Z,94553.53
2018-09-27T23:38:48.539Z,94559.59
2018-09-27T23:41:16.058Z,94549.81
2018-09-27T23:43:43.690Z,94550.98
2018-09-27T23:46:11.615Z,94549.74
2018-09-27T23:48:39.206Z,94550.47
2018-09-27T23:51:06.767Z,94543.67
2018-09-27T23:53:34.585Z,94543.52
2018-09-27T23:56:02.118Z,94539.78
2018-09-27T23:58:29.677Z,94535.31
